sensor_id;sensor_type;location;lat;lon;timestamp;temperature;humidity
18930;DHT22;43305;52.186;5.598;2022-08-01T00:00:31;18.40;99.90
18930;DHT22;43305;52.186;5.598;2022-08-01T00:02:57;18.50;99.90
18930;DHT22;43305;52.186;5.598;2022-08-01T00:05:24;18.50;99.90
18930;DHT22;43305;52.186;5.598;2022-08-01T00:07:51;18.50;99.90
18930;DHT22;43305;52.186;5.598;2022-08-01T00:10:20;18.50;99.90
18930;DHT22;43305;52.186;5.598;2022-08-01T00:12:47;18.40;99.90
18930;DHT22;43305;52.186;5.598;2022-08-01T00:15:15;18.40;99.90
18930;DHT22;43305;52.186;5.598;2022-08-01T00:17:43;18.40;99.90
18930;DHT22;43305;52.186;5.598;2022-08-01T00:20:12;18.40;99.90
18930;DHT22;43305;52.186;5.598;2022-08-01T00:22:39;18.40;99.90
18930;DHT22;43305;52.186;5.598;2022-08-01T00:25:06;18.40;99.90
18930;DHT22;43305;52.186;5.598;2022-08-01T00:27:35;18.40;99.90
18930;DHT22;43305;52.186;5.598;2022-08-01T00:30:02;18.40;99.90
18930;DHT22;43305;52.186;5.598;2022-08-01T00:32:32;18.30;99.90
18930;DHT22;43305;52.186;5.598;2022-08-01T00:34:59;18.40;99.90
18930;DHT22;43305;52.186;5.598;2022-08-01T00:37:25;18.40;99.90
18930;DHT22;43305;52.186;5.598;2022-08-01T00:39:53;18.40;99.90
18930;DHT22;43305;52.186;5.598;2022-08-01T00:42:19;18.40;99.90
18930;DHT22;43305;52.186;5.598;2022-08-01T00:44:55;18.40;99.90
18930;DHT22;43305;52.186;5.598;2022-08-01T00:47:24;18.40;99.90
18930;DHT22;43305;52.186;5.598;2022-08-01T00:49:50;18.40;99.90
18930;DHT22;43305;52.186;5.598;2022-08-01T00:52:17;18.30;99.90
18930;DHT22;43305;52.186;5.598;2022-08-01T00:54:45;18.40;99.90
18930;DHT22;43305;52.186;5.598;2022-08-01T00:57:12;18.30;99.90
18930;DHT22;43305;52.186;5.598;2022-08-01T00:59:39;18.30;99.90
18930;DHT22;43305;52.186;5.598;2022-08-01T01:02:11;18.30;99.90
18930;DHT22;43305;52.186;5.598;2022-08-01T01:04:38;18.30;99.90
18930;DHT22;43305;52.186;5.598;2022-08-01T01:07:13;18.30;99.90
18930;DHT22;43305;52.186;5.598;2022-08-01T01:09:49;18.30;99.90
18930;DHT22;43305;52.186;5.598;2022-08-01T01:12:24;18.20;99.90
18930;DHT22;43305;52.186;5.598;2022-08-01T01:15:02;18.20;99.90
18930;DHT22;43305;52.186;5.598;2022-08-01T01:17:37;18.20;99.90
18930;DHT22;43305;52.186;5.598;2022-08-01T01:20:07;18.20;99.90
18930;DHT22;43305;52.186;5.598;2022-08-01T01:22:47;18.20;99.90
18930;DHT22;43305;52.186;5.598;2022-08-01T01:25:28;18.20;99.90
18930;DHT22;43305;52.186;5.598;2022-08-01T01:28:08;18.20;99.90
18930;DHT22;43305;52.186;5.598;2022-08-01T01:30:39;18.10;99.90
18930;DHT22;43305;52.186;5.598;2022-08-01T01:33:08;18.10;99.90
18930;DHT22;43305;52.186;5.598;2022-08-01T01:35:41;18.10;99.90
18930;DHT22;43305;52.186;5.598;2022-08-01T01:38:14;18.10;99.90
18930;DHT22;43305;52.186;5.598;2022-08-01T01:40:44;18.00;99.90
18930;DHT22;43305;52.186;5.598;2022-08-01T01:43:15;18.00;99.90
18930;DHT22;43305;52.186;5.598;2022-08-01T01:45:46;18.00;99.90
18930;DHT22;43305;52.186;5.598;2022-08-01T01:48:16;18.00;99.90
18930;DHT22;43305;52.186;5.598;2022-08-01T01:50:46;18.00;99.90
18930;DHT22;43305;52.186;5.598;2022-08-01T01:53:16;18.00;99.90
18930;DHT22;43305;52.186;5.598;2022-08-01T01:55:47;18.00;99.90
18930;DHT22;43305;52.186;5.598;2022-08-01T01:58:15;18.00;99.90
18930;DHT22;43305;52.186;5.598;2022-08-01T02:00:50;18.00;99.90
18930;DHT22;43305;52.186;5.598;2022-08-01T02:03:18;18.00;99.90
18930;DHT22;43305;52.186;5.598;2022-08-01T02:05:46;18.00;99.90
18930;DHT22;43305;52.186;5.598;2022-08-01T02:08:17;18.00;99.90
18930;DHT22;43305;52.186;5.598;2022-08-01T02:10:45;18.00;99.90
18930;DHT22;43305;52.186;5.598;2022-08-01T02:13:34;18.00;99.90
18930;DHT22;43305;52.186;5.598;2022-08-01T02:16:05;18.00;99.90
18930;DHT22;43305;52.186;5.598;2022-08-01T02:18:32;18.00;99.90
18930;DHT22;43305;52.186;5.598;2022-08-01T02:21:00;18.00;99.90
18930;DHT22;43305;52.186;5.598;2022-08-01T02:23:32;17.90;99.90
18930;DHT22;43305;52.186;5.598;2022-08-01T02:26:06;17.90;99.90
18930;DHT22;43305;52.186;5.598;2022-08-01T02:28:37;17.90;99.90
18930;DHT22;43305;52.186;5.598;2022-08-01T02:31:10;17.90;99.90
18930;DHT22;43305;52.186;5.598;2022-08-01T02:33:43;17.90;99.90
18930;DHT22;43305;52.186;5.598;2022-08-01T02:36:12;17.90;99.90
18930;DHT22;43305;52.186;5.598;2022-08-01T02:38:43;17.90;99.90
18930;DHT22;43305;52.186;5.598;2022-08-01T02:41:13;17.90;99.90
18930;DHT22;43305;52.186;5.598;2022-08-01T02:43:47;17.90;99.90
18930;DHT22;43305;52.186;5.598;2022-08-01T02:46:22;17.90;99.90
18930;DHT22;43305;52.186;5.598;2022-08-01T02:48:52;17.90;99.90
18930;DHT22;43305;52.186;5.598;2022-08-01T02:51:21;17.90;99.90
18930;DHT22;43305;52.186;5.598;2022-08-01T02:53:50;17.90;99.90
18930;DHT22;43305;52.186;5.598;2022-08-01T02:56:19;17.90;99.90
18930;DHT22;43305;52.186;5.598;2022-08-01T02:58:49;17.90;99.90
18930;DHT22;43305;52.186;5.598;2022-08-01T03:01:21;17.90;99.90
18930;DHT22;43305;52.186;5.598;2022-08-01T03:03:48;18.00;99.90
18930;DHT22;43305;52.186;5.598;2022-08-01T03:06:18;18.00;99.90
18930;DHT22;43305;52.186;5.598;2022-08-01T03:08:47;18.00;99.90
18930;DHT22;43305;52.186;5.598;2022-08-01T03:11:15;18.00;99.90
18930;DHT22;43305;52.186;5.598;2022-08-01T03:13:44;18.00;99.90
18930;DHT22;43305;52.186;5.598;2022-08-01T04:46:53;17.80;99.90
18930;DHT22;43305;52.186;5.598;2022-08-01T04:49:21;17.80;99.90
18930;DHT22;43305;52.186;5.598;2022-08-01T04:51:50;17.80;99.90
18930;DHT22;43305;52.186;5.598;2022-08-01T04:54:23;17.80;99.90
18930;DHT22;43305;52.186;5.598;2022-08-01T04:56:50;17.80;99.90
18930;DHT22;43305;52.186;5.598;2022-08-01T04:59:19;17.70;99.90
18930;DHT22;43305;52.186;5.598;2022-08-01T05:02:01;17.70;99.90
18930;DHT22;43305;52.186;5.598;2022-08-01T05:04:28;17.70;99.90
18930;DHT22;43305;52.186;5.598;2022-08-01T05:06:54;17.60;99.90
18930;DHT22;43305;52.186;5.598;2022-08-01T05:09:21;17.60;99.90
18930;DHT22;43305;52.186;5.598;2022-08-01T05:11:48;17.70;99.90
18930;DHT22;43305;52.186;5.598;2022-08-01T05:14:15;17.70;99.90
18930;DHT22;43305;52.186;5.598;2022-08-01T05:16:42;17.70;99.90
18930;DHT22;43305;52.186;5.598;2022-08-01T05:19:10;17.80;99.90
18930;DHT22;43305;52.186;5.598;2022-08-01T05:21:37;17.80;99.90
18930;DHT22;43305;52.186;5.598;2022-08-01T05:24:05;17.90;99.90
18930;DHT22;43305;52.186;5.598;2022-08-01T05:26:32;18.00;99.90
18930;DHT22;43305;52.186;5.598;2022-08-01T05:28:59;18.00;99.90
18930;DHT22;43305;52.186;5.598;2022-08-01T05:31:26;18.10;99.90
18930;DHT22;43305;52.186;5.598;2022-08-01T05:33:53;18.10;99.90
18930;DHT22;43305;52.186;5.598;2022-08-01T05:36:21;18.20;99.90
18930;DHT22;43305;52.186;5.598;2022-08-01T05:38:47;18.20;99.90
18930;DHT22;43305;52.186;5.598;2022-08-01T05:41:14;18.30;99.90
18930;DHT22;43305;52.186;5.598;2022-08-01T05:43:41;18.30;99.90
18930;DHT22;43305;52.186;5.598;2022-08-01T05:46:08;18.30;99.90
18930;DHT22;43305;52.186;5.598;2022-08-01T05:48:35;18.30;99.90
18930;DHT22;43305;52.186;5.598;2022-08-01T05:51:02;18.40;99.90
18930;DHT22;43305;52.186;5.598;2022-08-01T05:53:31;18.40;99.90
18930;DHT22;43305;52.186;5.598;2022-08-01T05:55:59;18.50;99.90
18930;DHT22;43305;52.186;5.598;2022-08-01T05:58:26;18.60;99.90
18930;DHT22;43305;52.186;5.598;2022-08-01T06:00:53;18.60;99.90
18930;DHT22;43305;52.186;5.598;2022-08-01T06:03:20;18.60;99.90
18930;DHT22;43305;52.186;5.598;2022-08-01T06:05:46;18.60;99.90
18930;DHT22;43305;52.186;5.598;2022-08-01T06:08:13;18.60;99.90
18930;DHT22;43305;52.186;5.598;2022-08-01T06:10:41;18.60;99.90
18930;DHT22;43305;52.186;5.598;2022-08-01T06:13:08;18.70;99.90
18930;DHT22;43305;52.186;5.598;2022-08-01T06:15:34;18.60;99.90
18930;DHT22;43305;52.186;5.598;2022-08-01T06:18:01;18.70;99.90
18930;DHT22;43305;52.186;5.598;2022-08-01T06:20:29;18.70;99.90
18930;DHT22;43305;52.186;5.598;2022-08-01T06:22:55;18.80;99.90
18930;DHT22;43305;52.186;5.598;2022-08-01T06:25:22;18.90;99.90
18930;DHT22;43305;52.186;5.598;2022-08-01T06:27:50;18.80;99.90
18930;DHT22;43305;52.186;5.598;2022-08-01T06:30:17;18.90;99.90
18930;DHT22;43305;52.186;5.598;2022-08-01T06:32:45;18.90;99.90
18930;DHT22;43305;52.186;5.598;2022-08-01T06:35:13;18.80;99.90
18930;DHT22;43305;52.186;5.598;2022-08-01T06:37:40;18.90;99.90
18930;DHT22;43305;52.186;5.598;2022-08-01T06:40:08;18.80;99.90
18930;DHT22;43305;52.186;5.598;2022-08-01T06:42:37;18.80;99.90
18930;DHT22;43305;52.186;5.598;2022-08-01T06:45:09;18.80;99.90
18930;DHT22;43305;52.186;5.598;2022-08-01T06:47:37;18.90;99.90
18930;DHT22;43305;52.186;5.598;2022-08-01T06:50:05;18.80;99.90
18930;DHT22;43305;52.186;5.598;2022-08-01T06:52:32;18.80;99.90
18930;DHT22;43305;52.186;5.598;2022-08-01T06:54:59;18.80;99.90
18930;DHT22;43305;52.186;5.598;2022-08-01T06:57:26;18.80;99.90
18930;DHT22;43305;52.186;5.598;2022-08-01T06:59:53;18.70;99.90
18930;DHT22;43305;52.186;5.598;2022-08-01T07:02:23;18.80;99.90
18930;DHT22;43305;52.186;5.598;2022-08-01T07:04:49;18.80;99.90
18930;DHT22;43305;52.186;5.598;2022-08-01T07:07:16;18.80;99.90
18930;DHT22;43305;52.186;5.598;2022-08-01T07:09:43;18.80;99.90
18930;DHT22;43305;52.186;5.598;2022-08-01T07:12:10;18.90;99.90
18930;DHT22;43305;52.186;5.598;2022-08-01T07:14:37;18.80;99.90
18930;DHT22;43305;52.186;5.598;2022-08-01T07:17:07;18.80;99.90
18930;DHT22;43305;52.186;5.598;2022-08-01T07:19:35;18.80;99.90
18930;DHT22;43305;52.186;5.598;2022-08-01T07:22:02;18.90;99.90
18930;DHT22;43305;52.186;5.598;2022-08-01T07:24:29;18.80;99.90
18930;DHT22;43305;52.186;5.598;2022-08-01T07:26:58;18.80;99.90
18930;DHT22;43305;52.186;5.598;2022-08-01T07:29:25;18.80;99.90
18930;DHT22;43305;52.186;5.598;2022-08-01T07:31:53;18.80;99.90
18930;DHT22;43305;52.186;5.598;2022-08-01T07:34:27;18.80;99.90
18930;DHT22;43305;52.186;5.598;2022-08-01T07:36:55;18.80;99.90
18930;DHT22;43305;52.186;5.598;2022-08-01T07:39:22;18.70;99.90
18930;DHT22;43305;52.186;5.598;2022-08-01T07:41:49;18.70;99.90
18930;DHT22;43305;52.186;5.598;2022-08-01T07:44:15;18.70;99.90
18930;DHT22;43305;52.186;5.598;2022-08-01T07:46:42;18.70;99.90
18930;DHT22;43305;52.186;5.598;2022-08-01T07:49:11;18.70;99.90
18930;DHT22;43305;52.186;5.598;2022-08-01T07:51:38;18.70;99.90
18930;DHT22;43305;52.186;5.598;2022-08-01T07:54:06;18.80;99.90
18930;DHT22;43305;52.186;5.598;2022-08-01T07:56:33;18.70;99.90
18930;DHT22;43305;52.186;5.598;2022-08-01T07:59:00;18.80;99.90
18930;DHT22;43305;52.186;5.598;2022-08-01T08:01:26;19.00;99.90
18930;DHT22;43305;52.186;5.598;2022-08-01T08:03:53;18.90;99.90
18930;DHT22;43305;52.186;5.598;2022-08-01T08:06:20;19.00;99.90
18930;DHT22;43305;52.186;5.598;2022-08-01T08:08:48;19.10;99.90
18930;DHT22;43305;52.186;5.598;2022-08-01T08:11:19;19.10;99.90
18930;DHT22;43305;52.186;5.598;2022-08-01T08:13:47;19.20;99.90
18930;DHT22;43305;52.186;5.598;2022-08-01T08:16:14;19.10;99.90
18930;DHT22;43305;52.186;5.598;2022-08-01T08:18:41;19.20;99.90
18930;DHT22;43305;52.186;5.598;2022-08-01T08:21:07;19.20;99.90
18930;DHT22;43305;52.186;5.598;2022-08-01T08:23:35;19.30;99.90
18930;DHT22;43305;52.186;5.598;2022-08-01T08:26:17;19.50;99.90
18930;DHT22;43305;52.186;5.598;2022-08-01T08:28:43;19.60;99.90
18930;DHT22;43305;52.186;5.598;2022-08-01T08:31:10;19.60;99.90
18930;DHT22;43305;52.186;5.598;2022-08-01T08:33:40;19.70;99.90
18930;DHT22;43305;52.186;5.598;2022-08-01T08:36:08;19.80;99.90
18930;DHT22;43305;52.186;5.598;2022-08-01T08:38:37;19.80;99.90
18930;DHT22;43305;52.186;5.598;2022-08-01T08:41:04;19.90;99.90
18930;DHT22;43305;52.186;5.598;2022-08-01T08:43:35;19.90;99.90
18930;DHT22;43305;52.186;5.598;2022-08-01T08:46:02;19.90;99.90
18930;DHT22;43305;52.186;5.598;2022-08-01T08:48:30;19.80;99.90
18930;DHT22;43305;52.186;5.598;2022-08-01T08:50:57;19.70;99.90
18930;DHT22;43305;52.186;5.598;2022-08-01T08:53:30;19.80;99.90
18930;DHT22;43305;52.186;5.598;2022-08-01T08:55:58;19.80;99.90
18930;DHT22;43305;52.186;5.598;2022-08-01T08:58:35;19.80;99.90
18930;DHT22;43305;52.186;5.598;2022-08-01T09:01:06;19.80;99.90
18930;DHT22;43305;52.186;5.598;2022-08-01T09:03:34;19.80;99.90
18930;DHT22;43305;52.186;5.598;2022-08-01T09:06:02;19.70;99.90
18930;DHT22;43305;52.186;5.598;2022-08-01T09:08:30;19.70;99.90
18930;DHT22;43305;52.186;5.598;2022-08-01T09:10:58;19.70;99.90
18930;DHT22;43305;52.186;5.598;2022-08-01T09:13:25;19.70;99.90
18930;DHT22;43305;52.186;5.598;2022-08-01T09:15:56;19.70;99.90
18930;DHT22;43305;52.186;5.598;2022-08-01T09:18:29;19.80;99.90
18930;DHT22;43305;52.186;5.598;2022-08-01T09:21:09;19.90;99.90
18930;DHT22;43305;52.186;5.598;2022-08-01T09:23:38;20.10;99.90
18930;DHT22;43305;52.186;5.598;2022-08-01T09:26:08;20.20;99.90
18930;DHT22;43305;52.186;5.598;2022-08-01T09:28:37;20.30;99.90
18930;DHT22;43305;52.186;5.598;2022-08-01T09:31:10;20.40;99.90
18930;DHT22;43305;52.186;5.598;2022-08-01T09:33:50;20.40;99.90
18930;DHT22;43305;52.186;5.598;2022-08-01T09:36:18;20.30;99.90
18930;DHT22;43305;52.186;5.598;2022-08-01T09:38:47;20.40;99.90
18930;DHT22;43305;52.186;5.598;2022-08-01T09:41:16;20.50;99.90
18930;DHT22;43305;52.186;5.598;2022-08-01T09:43:48;20.50;99.90
18930;DHT22;43305;52.186;5.598;2022-08-01T09:46:18;20.60;99.90
18930;DHT22;43305;52.186;5.598;2022-08-01T09:48:55;20.70;99.90
18930;DHT22;43305;52.186;5.598;2022-08-01T09:51:38;20.80;99.90
18930;DHT22;43305;52.186;5.598;2022-08-01T09:54:06;20.80;99.90
18930;DHT22;43305;52.186;5.598;2022-08-01T09:56:36;20.80;99.90
18930;DHT22;43305;52.186;5.598;2022-08-01T09:59:04;20.80;99.90
18930;DHT22;43305;52.186;5.598;2022-08-01T10:01:50;20.80;99.90
18930;DHT22;43305;52.186;5.598;2022-08-01T10:04:20;20.80;99.90
18930;DHT22;43305;52.186;5.598;2022-08-01T10:06:49;20.70;99.90
18930;DHT22;43305;52.186;5.598;2022-08-01T10:09:28;20.80;99.90
18930;DHT22;43305;52.186;5.598;2022-08-01T10:11:56;20.80;99.90
18930;DHT22;43305;52.186;5.598;2022-08-01T10:14:26;20.80;99.90
18930;DHT22;43305;52.186;5.598;2022-08-01T10:16:57;20.90;99.90
18930;DHT22;43305;52.186;5.598;2022-08-01T10:19:29;21.00;99.90
18930;DHT22;43305;52.186;5.598;2022-08-01T10:22:00;21.10;99.90
18930;DHT22;43305;52.186;5.598;2022-08-01T10:24:29;21.20;99.90
18930;DHT22;43305;52.186;5.598;2022-08-01T10:26:59;21.30;99.90
18930;DHT22;43305;52.186;5.598;2022-08-01T10:29:31;21.40;99.90
18930;DHT22;43305;52.186;5.598;2022-08-01T10:32:05;21.50;99.90
18930;DHT22;43305;52.186;5.598;2022-08-01T10:34:38;21.60;99.90
18930;DHT22;43305;52.186;5.598;2022-08-01T10:37:08;21.70;99.90
18930;DHT22;43305;52.186;5.598;2022-08-01T10:39:39;21.80;99.90
18930;DHT22;43305;52.186;5.598;2022-08-01T10:42:09;21.90;99.90
18930;DHT22;43305;52.186;5.598;2022-08-01T10:44:39;21.80;99.90
18930;DHT22;43305;52.186;5.598;2022-08-01T10:47:12;21.90;99.90
18930;DHT22;43305;52.186;5.598;2022-08-01T10:49:45;21.90;99.90
18930;DHT22;43305;52.186;5.598;2022-08-01T10:52:15;21.80;99.90
18930;DHT22;43305;52.186;5.598;2022-08-01T10:54:46;21.80;99.90
18930;DHT22;43305;52.186;5.598;2022-08-01T10:57:13;21.90;99.90
18930;DHT22;43305;52.186;5.598;2022-08-01T10:59:50;22.00;99.90
18930;DHT22;43305;52.186;5.598;2022-08-01T11:02:28;21.90;99.90
18930;DHT22;43305;52.186;5.598;2022-08-01T11:05:04;22.00;99.90
18930;DHT22;43305;52.186;5.598;2022-08-01T11:07:42;22.10;99.90
18930;DHT22;43305;52.186;5.598;2022-08-01T11:10:21;22.10;99.90
18930;DHT22;43305;52.186;5.598;2022-08-01T11:12:49;22.10;99.90
18930;DHT22;43305;52.186;5.598;2022-08-01T11:15:21;22.20;99.90
18930;DHT22;43305;52.186;5.598;2022-08-01T11:17:55;22.10;99.90
18930;DHT22;43305;52.186;5.598;2022-08-01T11:20:26;22.20;99.90
18930;DHT22;43305;52.186;5.598;2022-08-01T11:23:18;22.30;99.90
18930;DHT22;43305;52.186;5.598;2022-08-01T11:26:12;22.40;99.90
18930;DHT22;43305;52.186;5.598;2022-08-01T11:28:41;22.50;99.90
18930;DHT22;43305;52.186;5.598;2022-08-01T11:31:25;22.30;99.90
18930;DHT22;43305;52.186;5.598;2022-08-01T11:33:54;22.20;99.90
18930;DHT22;43305;52.186;5.598;2022-08-01T11:36:21;22.20;99.90
18930;DHT22;43305;52.186;5.598;2022-08-01T11:39:10;22.30;99.90
18930;DHT22;43305;52.186;5.598;2022-08-01T11:41:37;22.30;99.90
18930;DHT22;43305;52.186;5.598;2022-08-01T11:44:06;22.30;99.90
18930;DHT22;43305;52.186;5.598;2022-08-01T11:46:52;22.30;99.90
18930;DHT22;43305;52.186;5.598;2022-08-01T11:49:45;22.20;99.90
18930;DHT22;43305;52.186;5.598;2022-08-01T11:52:14;22.30;99.90
18930;DHT22;43305;52.186;5.598;2022-08-01T11:54:44;22.30;99.90
18930;DHT22;43305;52.186;5.598;2022-08-01T11:57:14;22.30;99.90
18930;DHT22;43305;52.186;5.598;2022-08-01T11:59:44;22.50;99.90
18930;DHT22;43305;52.186;5.598;2022-08-01T12:02:20;22.70;99.90
18930;DHT22;43305;52.186;5.598;2022-08-01T12:04:51;22.70;99.90
18930;DHT22;43305;52.186;5.598;2022-08-01T12:07:19;22.80;99.90
18930;DHT22;43305;52.186;5.598;2022-08-01T12:09:47;23.00;99.90
18930;DHT22;43305;52.186;5.598;2022-08-01T12:12:16;22.90;99.90
18930;DHT22;43305;52.186;5.598;2022-08-01T12:14:45;22.90;99.90
18930;DHT22;43305;52.186;5.598;2022-08-01T12:17:11;23.00;99.90
18930;DHT22;43305;52.186;5.598;2022-08-01T12:19:41;23.10;99.90
18930;DHT22;43305;52.186;5.598;2022-08-01T12:22:11;23.10;99.90
18930;DHT22;43305;52.186;5.598;2022-08-01T12:24:40;23.20;99.90
18930;DHT22;43305;52.186;5.598;2022-08-01T12:27:09;23.20;99.90
18930;DHT22;43305;52.186;5.598;2022-08-01T12:29:39;23.20;99.90
18930;DHT22;43305;52.186;5.598;2022-08-01T12:32:22;23.10;99.90
18930;DHT22;43305;52.186;5.598;2022-08-01T12:34:50;23.10;99.90
18930;DHT22;43305;52.186;5.598;2022-08-01T12:37:22;23.20;99.90
18930;DHT22;43305;52.186;5.598;2022-08-01T12:39:53;22.90;99.90
18930;DHT22;43305;52.186;5.598;2022-08-01T12:42:20;22.90;99.90
18930;DHT22;43305;52.186;5.598;2022-08-01T12:44:49;22.90;99.90
18930;DHT22;43305;52.186;5.598;2022-08-01T12:47:18;23.10;99.90
18930;DHT22;43305;52.186;5.598;2022-08-01T12:49:45;23.10;99.90
18930;DHT22;43305;52.186;5.598;2022-08-01T12:52:13;23.30;99.90
18930;DHT22;43305;52.186;5.598;2022-08-01T12:55:03;23.30;99.90
18930;DHT22;43305;52.186;5.598;2022-08-01T12:57:30;23.40;99.90
18930;DHT22;43305;52.186;5.598;2022-08-01T13:00:06;23.60;99.90
18930;DHT22;43305;52.186;5.598;2022-08-01T13:02:34;23.60;99.90
18930;DHT22;43305;52.186;5.598;2022-08-01T13:05:01;23.60;99.90
18930;DHT22;43305;52.186;5.598;2022-08-01T13:07:38;23.60;99.90
18930;DHT22;43305;52.186;5.598;2022-08-01T13:10:08;23.60;99.90
18930;DHT22;43305;52.186;5.598;2022-08-01T13:12:36;23.70;99.90
18930;DHT22;43305;52.186;5.598;2022-08-01T13:15:19;23.80;99.90
18930;DHT22;43305;52.186;5.598;2022-08-01T13:17:47;23.60;99.90
18930;DHT22;43305;52.186;5.598;2022-08-01T13:20:24;23.50;99.90
18930;DHT22;43305;52.186;5.598;2022-08-01T13:22:54;23.40;99.90
18930;DHT22;43305;52.186;5.598;2022-08-01T13:25:30;23.50;99.90
18930;DHT22;43305;52.186;5.598;2022-08-01T13:28:13;23.70;99.90
18930;DHT22;43305;52.186;5.598;2022-08-01T13:30:51;23.90;99.90
18930;DHT22;43305;52.186;5.598;2022-08-01T13:33:19;24.10;99.90
18930;DHT22;43305;52.186;5.598;2022-08-01T13:35:47;24.30;99.90
18930;DHT22;43305;52.186;5.598;2022-08-01T13:38:15;24.40;99.90
18930;DHT22;43305;52.186;5.598;2022-08-01T13:40:44;24.50;99.90
18930;DHT22;43305;52.186;5.598;2022-08-01T13:43:11;24.60;99.90
18930;DHT22;43305;52.186;5.598;2022-08-01T13:45:40;24.60;99.90
18930;DHT22;43305;52.186;5.598;2022-08-01T13:48:11;24.80;99.90
18930;DHT22;43305;52.186;5.598;2022-08-01T13:50:38;25.00;99.90
18930;DHT22;43305;52.186;5.598;2022-08-01T13:53:05;25.20;99.90
18930;DHT22;43305;52.186;5.598;2022-08-01T13:55:32;25.40;99.90
18930;DHT22;43305;52.186;5.598;2022-08-01T13:58:00;25.60;99.90
18930;DHT22;43305;52.186;5.598;2022-08-01T14:00:28;25.70;99.90
18930;DHT22;43305;52.186;5.598;2022-08-01T14:02:55;25.90;99.90
18930;DHT22;43305;52.186;5.598;2022-08-01T14:05:22;26.20;99.90
18930;DHT22;43305;52.186;5.598;2022-08-01T14:07:49;26.30;99.90
18930;DHT22;43305;52.186;5.598;2022-08-01T14:10:16;26.30;99.90
18930;DHT22;43305;52.186;5.598;2022-08-01T14:12:43;26.00;99.90
18930;DHT22;43305;52.186;5.598;2022-08-01T14:15:11;26.00;99.90
18930;DHT22;43305;52.186;5.598;2022-08-01T14:17:38;26.10;99.90
18930;DHT22;43305;52.186;5.598;2022-08-01T14:20:06;26.10;99.90
18930;DHT22;43305;52.186;5.598;2022-08-01T14:22:33;26.40;99.90
18930;DHT22;43305;52.186;5.598;2022-08-01T14:24:59;26.70;99.90
18930;DHT22;43305;52.186;5.598;2022-08-01T14:27:26;26.90;99.90
18930;DHT22;43305;52.186;5.598;2022-08-01T14:29:56;27.00;99.90
18930;DHT22;43305;52.186;5.598;2022-08-01T14:32:25;26.70;99.90
18930;DHT22;43305;52.186;5.598;2022-08-01T14:34:52;27.10;99.90
18930;DHT22;43305;52.186;5.598;2022-08-01T14:37:19;27.50;99.90
18930;DHT22;43305;52.186;5.598;2022-08-01T14:39:46;27.30;99.90
18930;DHT22;43305;52.186;5.598;2022-08-01T14:42:14;27.30;99.90
18930;DHT22;43305;52.186;5.598;2022-08-01T14:44:43;27.70;99.90
18930;DHT22;43305;52.186;5.598;2022-08-01T14:47:11;28.10;99.90
18930;DHT22;43305;52.186;5.598;2022-08-01T14:49:43;28.50;99.90
18930;DHT22;43305;52.186;5.598;2022-08-01T14:52:10;28.70;99.90
18930;DHT22;43305;52.186;5.598;2022-08-01T14:54:37;29.00;99.90
18930;DHT22;43305;52.186;5.598;2022-08-01T14:57:04;29.00;99.90
18930;DHT22;43305;52.186;5.598;2022-08-01T14:59:31;29.30;99.90
18930;DHT22;43305;52.186;5.598;2022-08-01T15:01:59;29.60;99.90
18930;DHT22;43305;52.186;5.598;2022-08-01T15:04:27;29.80;99.90
18930;DHT22;43305;52.186;5.598;2022-08-01T15:06:55;30.00;99.90
18930;DHT22;43305;52.186;5.598;2022-08-01T15:09:22;30.00;99.90
18930;DHT22;43305;52.186;5.598;2022-08-01T15:11:49;30.20;99.90
18930;DHT22;43305;52.186;5.598;2022-08-01T15:14:16;29.80;99.90
18930;DHT22;43305;52.186;5.598;2022-08-01T15:16:59;29.50;99.90
18930;DHT22;43305;52.186;5.598;2022-08-01T15:19:26;29.30;99.90
18930;DHT22;43305;52.186;5.598;2022-08-01T15:21:55;28.90;99.90
18930;DHT22;43305;52.186;5.598;2022-08-01T15:24:21;28.90;99.90
18930;DHT22;43305;52.186;5.598;2022-08-01T15:26:48;29.00;99.90
18930;DHT22;43305;52.186;5.598;2022-08-01T15:29:15;28.70;99.90
18930;DHT22;43305;52.186;5.598;2022-08-01T15:31:44;28.30;99.90
18930;DHT22;43305;52.186;5.598;2022-08-01T15:34:11;28.00;99.90
18930;DHT22;43305;52.186;5.598;2022-08-01T15:36:38;28.10;99.90
18930;DHT22;43305;52.186;5.598;2022-08-01T15:39:07;28.10;99.90
18930;DHT22;43305;52.186;5.598;2022-08-01T15:41:34;28.00;99.90
18930;DHT22;43305;52.186;5.598;2022-08-01T15:44:00;27.20;99.90
18930;DHT22;43305;52.186;5.598;2022-08-01T15:46:27;26.90;99.90
18930;DHT22;43305;52.186;5.598;2022-08-01T15:48:54;27.00;99.90
18930;DHT22;43305;52.186;5.598;2022-08-01T15:51:21;26.30;99.90
18930;DHT22;43305;52.186;5.598;2022-08-01T15:53:48;26.70;99.90
18930;DHT22;43305;52.186;5.598;2022-08-01T15:56:16;27.10;99.90
18930;DHT22;43305;52.186;5.598;2022-08-01T15:58:43;27.60;99.90
18930;DHT22;43305;52.186;5.598;2022-08-01T16:01:10;27.90;99.90
18930;DHT22;43305;52.186;5.598;2022-08-01T16:03:36;28.20;99.90
18930;DHT22;43305;52.186;5.598;2022-08-01T16:06:04;28.30;99.90
18930;DHT22;43305;52.186;5.598;2022-08-01T16:08:32;28.30;99.90
18930;DHT22;43305;52.186;5.598;2022-08-01T16:10:59;28.50;99.90
18930;DHT22;43305;52.186;5.598;2022-08-01T16:13:27;28.20;99.90
18930;DHT22;43305;52.186;5.598;2022-08-01T16:15:54;27.70;99.90
18930;DHT22;43305;52.186;5.598;2022-08-01T16:18:20;27.20;99.90
18930;DHT22;43305;52.186;5.598;2022-08-01T16:20:48;27.20;99.90
18930;DHT22;43305;52.186;5.598;2022-08-01T16:23:14;27.40;99.90
18930;DHT22;43305;52.186;5.598;2022-08-01T16:25:41;27.40;99.90
18930;DHT22;43305;52.186;5.598;2022-08-01T16:28:09;27.30;99.90
18930;DHT22;43305;52.186;5.598;2022-08-01T16:30:39;27.50;99.90
18930;DHT22;43305;52.186;5.598;2022-08-01T16:33:06;27.50;99.90
18930;DHT22;43305;52.186;5.598;2022-08-01T16:35:33;27.50;99.90
18930;DHT22;43305;52.186;5.598;2022-08-01T16:38:00;26.90;99.90
18930;DHT22;43305;52.186;5.598;2022-08-01T16:40:27;26.80;99.90
18930;DHT22;43305;52.186;5.598;2022-08-01T16:42:54;26.60;99.90
18930;DHT22;43305;52.186;5.598;2022-08-01T16:45:21;26.90;99.90
18930;DHT22;43305;52.186;5.598;2022-08-01T16:47:50;27.00;99.90
18930;DHT22;43305;52.186;5.598;2022-08-01T16:50:17;27.10;99.90
18930;DHT22;43305;52.186;5.598;2022-08-01T16:52:44;27.40;99.90
18930;DHT22;43305;52.186;5.598;2022-08-01T16:55:11;27.40;99.90
18930;DHT22;43305;52.186;5.598;2022-08-01T16:57:37;27.40;99.90
18930;DHT22;43305;52.186;5.598;2022-08-01T17:00:06;27.30;99.90
18930;DHT22;43305;52.186;5.598;2022-08-01T17:02:33;27.20;99.90
18930;DHT22;43305;52.186;5.598;2022-08-01T17:05:03;26.90;99.90
18930;DHT22;43305;52.186;5.598;2022-08-01T17:07:32;27.00;99.90
18930;DHT22;43305;52.186;5.598;2022-08-01T17:09:59;26.90;99.90
18930;DHT22;43305;52.186;5.598;2022-08-01T17:12:25;26.90;99.90
18930;DHT22;43305;52.186;5.598;2022-08-01T17:14:53;26.70;99.90